| time (UTC) | temp C | wind direction | speed KPH | gust KPH | rain 1hr cm | rain 24hr cm | rain mn cm | humidity % | barometer mb |
| 20260508023924 | 25 | 188 | 1.6 | 1.6 | 0.00 | 3.40 | 3.40 | 94 | 1017.6 |
| 20260508023421 | 25 | 173 | 3.2 | 3.2 | 0.00 | 3.40 | 3.40 | 94 | 1017.5 |
| 20260508022918 | 25 | 162 | 3.2 | 3.2 | 0.00 | 3.40 | 3.40 | 94 | 1017.7 |
| 20260508022413 | 25 | 208 | 0.0 | 0.0 | 0.00 | 3.40 | 3.40 | 94 | 1017.6 |
| 20260508021910 | 25 | 194 | 0.0 | 0.0 | 0.00 | 3.40 | 3.40 | 94 | 1017.5 |
| 20260508021406 | 25 | 208 | 0.0 | 0.0 | 0.00 | 3.40 | 3.40 | 95 | 1017.6 |
| 20260508020902 | 25 | 164 | 0.0 | 1.6 | 0.00 | 3.40 | 3.40 | 94 | 1017.6 |
| 20260508020401 | 25 | 190 | 0.0 | 0.0 | 0.00 | 3.40 | 3.40 | 94 | 1017.3 |
| 20260508015857 | 25 | 143 | 1.6 | 3.2 | 0.00 | 3.40 | 3.40 | 95 | 1017.5 |
| 20260508015355 | 25 | 150 | 1.6 | 3.2 | 0.00 | 3.40 | 3.40 | 95 | 1017.4 |
| 20260508014851 | 25 | 89 | 1.6 | 1.6 | 0.00 | 3.40 | 3.40 | 95 | 1017.4 |
| 20260508014349 | 25 | 166 | 4.8 | 4.8 | 0.00 | 3.40 | 3.40 | 95 | 1017.5 |
| 20260508013844 | 25 | 158 | 4.8 | 4.8 | 0.00 | 3.40 | 3.40 | 95 | 1017.3 |
| 20260508013341 | 25 | 136 | 4.8 | 4.8 | 0.00 | 3.40 | 3.40 | 95 | 1017.3 |
| 20260508012838 | 25 | 185 | 3.2 | 3.2 | 0.00 | 3.40 | 3.40 | 95 | 1017.3 |
| 20260508012335 | 25 | 180 | 4.8 | 4.8 | 0.00 | 3.40 | 3.40 | 94 | 1017.2 |
| 20260508011833 | 26 | 115 | 1.6 | 3.2 | 0.00 | 3.40 | 3.40 | 93 | 1017.3 |
| 20260508011330 | 26 | 101 | 3.2 | 3.2 | 0.00 | 3.40 | 3.40 | 93 | 1017.2 |
| 20260508010827 | 26 | 155 | 4.8 | 4.8 | 0.00 | 3.40 | 3.40 | 93 | 1017.2 |
| 20260508010325 | 26 | 169 | 1.6 | 3.2 | 0.00 | 3.40 | 3.40 | 94 | 1017.3 |
| 20260508005822 | 26 | 168 | 3.2 | 3.2 | 0.00 | 3.40 | 3.40 | 93 | 1017.1 |
| 20260508005318 | 26 | 77 | 1.6 | 3.2 | 0.00 | 3.40 | 3.40 | 93 | 1017.1 |
| 20260508004815 | 26 | 148 | 0.0 | 1.6 | 0.00 | 3.40 | 3.40 | 93 | 1017.1 |
| 20260508004311 | 26 | 135 | 1.6 | 1.6 | 0.00 | 3.40 | 3.40 | 93 | 1016.9 |
| 20260508003807 | 26 | 112 | 3.2 | 3.2 | 0.00 | 3.40 | 3.40 | 93 | 1017.0 |
| 20260508003305 | 25 | 91 | 4.8 | 4.8 | 0.00 | 3.40 | 3.40 | 94 | 1017.1 |
| 20260508002801 | 25 | 99 | 4.8 | 9.7 | 0.00 | 3.40 | 3.40 | 96 | 1017.0 |
| 20260508002258 | 25 | 69 | 4.8 | 4.8 | 0.00 | 3.40 | 3.40 | 97 | 1017.1 |
| 20260508001754 | 25 | 86 | 4.8 | 4.8 | 0.00 | 3.40 | 3.40 | 97 | 1016.8 |
| 20260508001250 | 25 | 75 | 3.2 | 4.8 | 0.00 | 3.40 | 3.40 | 97 | 1016.7 |
| 20260508000746 | 25 | 118 | 1.6 | 3.2 | 0.00 | 3.40 | 3.40 | 97 | 1016.9 |
| 20260508000244 | 25 | 118 | 3.2 | 4.8 | 0.00 | 3.40 | 3.40 | 98 | 1016.8 |
| 20260507235740 | 25 | 80 | 6.4 | 8.0 | 0.00 | 3.40 | 3.40 | 98 | 1016.6 |
| 20260507235238 | 25 | 56 | 1.6 | 3.2 | 0.00 | 3.40 | 3.40 | 98 | 1016.6 |
| 20260507234734 | 25 | 101 | 4.8 | 8.0 | 0.00 | 3.40 | 3.40 | 98 | 1016.7 |
| 20260507234231 | 25 | 143 | 3.2 | 3.2 | 0.00 | 3.40 | 3.40 | 99 | 1016.7 |
| 20260507233727 | 25 | 273 | 0.0 | 0.0 | 0.00 | 3.40 | 3.40 | 99 | 1016.5 |
| 20260507233226 | 24 | 255 | 3.2 | 3.2 | 0.00 | 3.40 | 3.40 | 99 | 1016.4 |
| 20260507232723 | 24 | 233 | 1.6 | 3.2 | 0.00 | 3.40 | 3.40 | 99 | 1016.5 |
| 20260507232220 | 23 | 249 | 1.6 | 1.6 | 0.00 | 3.40 | 3.40 | 99 | 1016.5 |
| 20260507231716 | 23 | 275 | 3.2 | 3.2 | 0.00 | 3.40 | 3.40 | 99 | 1016.2 |
| 20260507231213 | 23 | 257 | 3.2 | 3.2 | 0.00 | 3.40 | 3.40 | 99 | 1016.3 |
| 20260507230710 | 23 | 256 | 3.2 | 3.2 | 0.00 | 3.40 | 3.40 | 99 | 1016.2 |
| 20260507230208 | 23 | 272 | 1.6 | 1.6 | 0.00 | 3.40 | 3.40 | 99 | 1015.8 |
| 20260507225706 | 23 | 264 | 1.6 | 1.6 | 0.00 | 3.40 | 3.40 | 99 | 1015.7 |
| 20260507225203 | 23 | 281 | 0.0 | 0.0 | 0.00 | 3.40 | 3.40 | 99 | 1015.7 |
| 20260507224659 | 23 | 274 | 0.0 | 0.0 | 0.00 | 3.40 | 3.40 | 99 | 1015.6 |
| 20260507224155 | 23 | 356 | 0.0 | 1.6 | 0.00 | 3.40 | 3.40 | 99 | 1015.6 |
| 20260507223652 | 23 | 334 | 0.0 | 0.0 | 0.66 | 3.40 | 3.40 | 99 | 1015.7 |
| 20260507223149 | 23 | 195 | 1.6 | 1.6 | 1.85 | 3.40 | 3.40 | 99 | 1015.9 |
| 20260507222646 | 23 | 201 | 9.7 | 11.3 | 1.98 | 3.33 | 3.33 | 99 | 1015.9 |
| 20260507222142 | 23 | 183 | 11.3 | 14.5 | 2.77 | 3.15 | 3.15 | 99 | 1015.9 |
| 20260507221639 | 23 | 236 | 6.4 | 9.7 | 3.96 | 2.97 | 2.97 | 99 | 1016.0 |
| 20260507221135 | 23 | 220 | 9.7 | 12.9 | 5.64 | 2.59 | 2.59 | 99 | 1016.0 |
| 20260507220632 | 24 | 194 | 11.3 | 12.9 | 6.60 | 2.13 | 2.13 | 99 | 1015.8 |
| 20260507220130 | 23 | 149 | 3.2 | 4.8 | 6.43 | 1.60 | 1.60 | 99 | 1015.9 |
| 20260507215626 | 23 | 76 | 4.8 | 4.8 | 3.07 | 0.97 | 0.97 | 99 | 1016.0 |
| 20260507215124 | 25 | 68 | 4.8 | 9.7 | 1.02 | 0.53 | 0.53 | 99 | 1015.8 |
| 20260507214621 | 25 | 38 | 8.0 | 11.3 | 1.19 | 0.46 | 0.46 | 99 | 1015.3 |
| 20260507214117 | 25 | 83 | 6.4 | 8.0 | 1.80 | 0.38 | 0.38 | 98 | 1015.5 |
| 20260507213613 | 26 | 58 | 11.3 | 14.5 | 1.37 | 0.23 | 0.23 | 97 | 1015.2 |
| 20260507213110 | 26 | 68 | 9.7 | 16.1 | 0.30 | 0.05 | 0.05 | 95 | 1015.1 |
| 20260507212606 | 27 | 29 | 8.0 | 9.7 | 0.00 | 0.00 | 0.00 | 93 | 1015.0 |
| 20260507212103 | 28 | 68 | 14.5 | 17.7 | 0.00 | 0.00 | 0.00 | 86 | 1015.1 |
| 20260507211600 | 28 | 84 | 6.4 | 8.0 | 0.00 | 0.00 | 0.00 | 83 | 1015.2 |
| 20260507211056 | 28 | 153 | 8.0 | 9.7 | 0.00 | 0.00 | 0.00 | 83 | 1014.9 |
| 20260507210554 | 28 | 99 | 8.0 | 9.7 | 0.00 | 0.00 | 0.00 | 83 | 1015.1 |
| 20260507210050 | 28 | 116 | 8.0 | 9.7 | 0.00 | 0.00 | 0.00 | 82 | 1015.0 |
| 20260507205547 | 29 | 129 | 8.0 | 11.3 | 0.00 | 0.00 | 0.00 | 80 | 1015.0 |
| 20260507205043 | 29 | 152 | 9.7 | 12.9 | 0.00 | 0.00 | 0.00 | 79 | 1015.0 |
| 20260507204539 | 29 | 109 | 8.0 | 11.3 | 0.00 | 0.00 | 0.00 | 80 | 1015.0 |
| 20260507204037 | 29 | 72 | 3.2 | 4.8 | 0.00 | 0.00 | 0.00 | 80 | 1014.8 |
| 20260507203535 | 29 | 107 | 4.8 | 8.0 | 0.00 | 0.00 | 0.00 | 80 | 1014.9 |
| 20260507203032 | 28 | 126 | 4.8 | 4.8 | 0.00 | 0.00 | 0.00 | 79 | 1014.9 |
| 20260507202528 | 30 | 102 | 9.7 | 11.3 | 0.00 | 0.00 | 0.00 | 77 | 1014.9 |
| 20260507202024 | 28 | 86 | 8.0 | 12.9 | 0.00 | 0.00 | 0.00 | 81 | 1014.9 |
| 20260507201520 | 30 | 92 | 11.3 | 12.9 | 0.00 | 0.00 | 0.00 | 78 | 1014.8 |
| 20260507201016 | 30 | 81 | 8.0 | 9.7 | 0.00 | 0.00 | 0.00 | 77 | 1014.9 |
| 20260507200512 | 29 | 109 | 12.9 | 16.1 | 0.00 | 0.00 | 0.00 | 79 | 1014.9 |
| 20260507200008 | 29 | 94 | 8.0 | 11.3 | 0.00 | 0.00 | 0.00 | 78 | 1015.0 |
| 20260507195505 | 30 | 87 | 12.9 | 17.7 | 0.00 | 0.00 | 0.00 | 78 | 1015.0 |
| 20260507195003 | 30 | 117 | 17.7 | 22.5 | 0.00 | 0.00 | 0.00 | 78 | 1014.7 |
| 20260507194459 | 30 | 66 | 12.9 | 16.1 | 0.00 | 0.00 | 0.00 | 78 | 1014.9 |
| 20260507193955 | 30 | 154 | 8.0 | 11.3 | 0.00 | 0.00 | 0.00 | 77 | 1015.0 |
| 20260507193452 | 30 | 82 | 11.3 | 11.3 | 0.00 | 0.00 | 0.00 | 79 | 1015.1 |
| 20260507192949 | 30 | 93 | 6.4 | 9.7 | 0.00 | 0.00 | 0.00 | 78 | 1015.1 |
| 20260507192445 | 30 | 87 | 9.7 | 11.3 | 0.00 | 0.00 | 0.00 | 78 | 1015.1 |
| 20260507191942 | 30 | 67 | 11.3 | 16.1 | 0.00 | 0.00 | 0.00 | 78 | 1015.1 |
| 20260507191438 | 30 | 87 | 6.4 | 9.7 | 0.00 | 0.00 | 0.00 | 77 | 1015.0 |
| 20260507190935 | 30 | 38 | 11.3 | 12.9 | 0.00 | 0.00 | 0.00 | 77 | 1015.2 |
| 20260507190432 | 31 | 42 | 12.9 | 17.7 | 0.00 | 0.00 | 0.00 | 74 | 1015.2 |
| 20260507185931 | 31 | 69 | 9.7 | 12.9 | 0.00 | 0.00 | 0.00 | 75 | 1015.1 |
| 20260507185428 | 31 | 93 | 4.8 | 8.0 | 0.00 | 0.00 | 0.00 | 74 | 1015.2 |
| 20260507184925 | 30 | 92 | 14.5 | 17.7 | 0.00 | 0.00 | 0.00 | 75 | 1015.3 |
| 20260507184423 | 31 | 62 | 9.7 | 12.9 | 0.00 | 0.00 | 0.00 | 74 | 1015.3 |
| 20260507183920 | 30 | 48 | 12.9 | 14.5 | 0.00 | 0.00 | 0.00 | 75 | 1015.3 |
| 20260507183417 | 30 | 60 | 14.5 | 16.1 | 0.00 | 0.00 | 0.00 | 75 | 1015.4 |
| 20260507182914 | 30 | 63 | 12.9 | 17.7 | 0.00 | 0.00 | 0.00 | 74 | 1015.3 |
| 20260507182410 | 31 | 44 | 11.3 | 12.9 | 0.00 | 0.00 | 0.00 | 74 | 1015.3 |
| 20260507181906 | 30 | 43 | 8.0 | 12.9 | 0.00 | 0.00 | 0.00 | 75 | 1015.5 |
| 20260507181402 | 31 | 78 | 17.7 | 20.9 | 0.00 | 0.00 | 0.00 | 72 | 1015.3 |
| 20260507180859 | 31 | 63 | 9.7 | 14.5 | 0.00 | 0.00 | 0.00 | 75 | 1015.4 |
| 20260507180356 | 31 | 80 | 11.3 | 14.5 | 0.00 | 0.00 | 0.00 | 73 | 1015.6 |
| 20260507175852 | 31 | 55 | 12.9 | 20.9 | 0.00 | 0.00 | 0.00 | 72 | 1015.6 |
| 20260507175349 | 31 | 88 | 9.7 | 11.3 | 0.00 | 0.00 | 0.00 | 73 | 1015.8 |
| 20260507174847 | 31 | 43 | 11.3 | 17.7 | 0.00 | 0.00 | 0.00 | 74 | 1015.8 |
| 20260507174344 | 31 | 63 | 9.7 | 12.9 | 0.00 | 0.00 | 0.00 | 75 | 1015.7 |
| 20260507173841 | 31 | 57 | 11.3 | 12.9 | 0.00 | 0.00 | 0.00 | 74 | 1015.8 |
| 20260507173338 | 31 | 62 | 9.7 | 14.5 | 0.00 | 0.00 | 0.00 | 74 | 1016.1 |
| 20260507172834 | 31 | 76 | 12.9 | 14.5 | 0.00 | 0.00 | 0.00 | 74 | 1016.0 |
| 20260507172331 | 31 | 73 | 4.8 | 9.7 | 0.00 | 0.00 | 0.00 | 76 | 1016.1 |
| 20260507171827 | 31 | 46 | 4.8 | 4.8 | 0.00 | 0.00 | 0.00 | 73 | 1016.3 |
| 20260507171324 | 31 | 110 | 8.0 | 9.7 | 0.00 | 0.00 | 0.00 | 70 | 1016.3 |
| 20260507170821 | 31 | 78 | 9.7 | 12.9 | 0.00 | 0.00 | 0.00 | 71 | 1016.4 |
| 20260507170317 | 31 | 109 | 12.9 | 14.5 | 0.00 | 0.00 | 0.00 | 70 | 1016.4 |
| 20260507165813 | 32 | 144 | 8.0 | 9.7 | 0.00 | 0.00 | 0.00 | 69 | 1016.5 |
| 20260507165310 | 32 | 63 | 11.3 | 12.9 | 0.00 | 0.00 | 0.00 | 70 | 1016.6 |
| 20260507164806 | 32 | 56 | 16.1 | 20.9 | 0.00 | 0.00 | 0.00 | 68 | 1016.8 |
| 20260507164303 | 32 | 98 | 11.3 | 12.9 | 0.00 | 0.00 | 0.00 | 69 | 1016.8 |
| 20260507163800 | 31 | 102 | 6.4 | 8.0 | 0.00 | 0.00 | 0.00 | 71 | 1016.9 |
| 20260507163258 | 32 | 72 | 8.0 | 12.9 | 0.00 | 0.00 | 0.00 | 71 | 1016.9 |
| 20260507162753 | 31 | 62 | 4.8 | 8.0 | 0.00 | 0.00 | 0.00 | 71 | 1017.0 |
| 20260507162249 | 31 | 165 | 6.4 | 9.7 | 0.00 | 0.00 | 0.00 | 72 | 1017.0 |
| 20260507161747 | 32 | 87 | 9.7 | 12.9 | 0.00 | 0.00 | 0.00 | 71 | 1017.1 |
| 20260507161243 | 32 | 68 | 9.7 | 11.3 | 0.00 | 0.00 | 0.00 | 71 | 1017.1 |
| 20260507160739 | 31 | 60 | 11.3 | 14.5 | 0.00 | 0.00 | 0.00 | 71 | 1017.0 |
| 20260507160236 | 31 | 69 | 8.0 | 11.3 | 0.00 | 0.00 | 0.00 | 71 | 1017.3 |
| 20260507155732 | 32 | 76 | 9.7 | 12.9 | 0.00 | 0.00 | 0.00 | 71 | 1017.2 |
| 20260507155228 | 32 | 155 | 4.8 | 8.0 | 0.00 | 0.00 | 0.00 | 69 | 1017.2 |
| 20260507154725 | 31 | 96 | 9.7 | 11.3 | 0.00 | 0.00 | 0.00 | 71 | 1017.3 |
| 20260507154222 | 31 | 120 | 4.8 | 8.0 | 0.00 | 0.00 | 0.00 | 72 | 1017.4 |
| 20260507153718 | 32 | 127 | 6.4 | 9.7 | 0.00 | 0.00 | 0.00 | 71 | 1017.5 |
| 20260507153215 | 31 | 69 | 3.2 | 3.2 | 0.00 | 0.00 | 0.00 | 70 | 1017.3 |
| 20260507152712 | 32 | 91 | 4.8 | 4.8 | 0.00 | 0.00 | 0.00 | 70 | 1017.5 |
| 20260507152207 | 32 | 168 | 3.2 | 3.2 | 0.00 | 0.00 | 0.00 | 69 | 1017.5 |
| 20260507151704 | 32 | 172 | 9.7 | 11.3 | 0.00 | 0.00 | 0.00 | 69 | 1017.6 |
| 20260507151201 | 32 | 124 | 3.2 | 3.2 | 0.00 | 0.00 | 0.00 | 68 | 1017.4 |
| 20260507150658 | 31 | 59 | 0.0 | 1.6 | 0.00 | 0.00 | 0.00 | 70 | 1017.7 |
| 20260507150154 | 32 | 143 | 3.2 | 4.8 | 0.00 | 0.00 | 0.00 | 70 | 1017.6 |
| 20260507145650 | 32 | 66 | 0.0 | 0.0 | 0.00 | 0.00 | 0.00 | 68 | 1017.7 |
| 20260507145147 | 30 | 86 | 4.8 | 4.8 | 0.00 | 0.00 | 0.00 | 73 | 1017.7 |
| 20260507144643 | 31 | 128 | 4.8 | 8.0 | 0.00 | 0.00 | 0.00 | 72 | 1017.9 |
| 20260507144142 | 31 | 142 | 4.8 | 8.0 | 0.00 | 0.00 | 0.00 | 70 | 1018.0 |
| 20260507143638 | 31 | 137 | 6.4 | 8.0 | 0.00 | 0.00 | 0.00 | 69 | 1017.8 |
| 20260507143135 | 31 | 166 | 3.2 | 4.8 | 0.00 | 0.00 | 0.00 | 71 | 1017.6 |
| 20260507142630 | 30 | 215 | 1.6 | 3.2 | 0.00 | 0.00 | 0.00 | 75 | 1017.9 |
| 20260507142128 | 30 | 65 | 1.6 | 1.6 | 0.00 | 0.00 | 0.00 | 76 | 1018.0 |
| 20260507141624 | 30 | 169 | 0.0 | 0.0 | 0.00 | 0.00 | 0.00 | 74 | 1018.2 |
| 20260507141121 | 30 | 29 | 1.6 | 3.2 | 0.00 | 0.00 | 0.00 | 74 | 1018.0 |
| 20260507140617 | 29 | 117 | 3.2 | 3.2 | 0.00 | 0.00 | 0.00 | 77 | 1018.2 |
| 20260507140115 | 30 | 79 | 3.2 | 3.2 | 0.00 | 0.00 | 0.00 | 76 | 1018.0 |
| 20260507135612 | 30 | 53 | 3.2 | 3.2 | 0.00 | 0.00 | 0.00 | 75 | 1018.1 |
| 20260507135109 | 30 | 36 | 6.4 | 8.0 | 0.00 | 0.00 | 0.00 | 73 | 1018.0 |
| 20260507134605 | 30 | 88 | 3.2 | 4.8 | 0.00 | 0.00 | 0.00 | 73 | 1018.3 |
| 20260507134102 | 29 | 48 | 3.2 | 3.2 | 0.00 | 0.00 | 0.00 | 77 | 1018.3 |
| 20260507133557 | 29 | 103 | 3.2 | 4.8 | 0.00 | 0.00 | 0.00 | 78 | 1018.3 |
| 20260507133055 | 29 | 55 | 4.8 | 4.8 | 0.00 | 0.00 | 0.00 | 79 | 1018.4 |
| 20260507132552 | 28 | 77 | 3.2 | 3.2 | 0.00 | 0.00 | 0.00 | 79 | 1018.1 |
| 20260507132048 | 29 | 71 | 3.2 | 4.8 | 0.00 | 0.00 | 0.00 | 78 | 1018.0 |
| 20260507131545 | 30 | 114 | 4.8 | 4.8 | 0.00 | 0.00 | 0.00 | 76 | 1018.0 |
| 20260507131043 | 30 | 59 | 4.8 | 4.8 | 0.00 | 0.00 | 0.00 | 76 | 1018.0 |
| 20260507130539 | 30 | 127 | 4.8 | 8.0 | 0.00 | 0.00 | 0.00 | 79 | 1018.1 |
| 20260507130038 | 29 | 171 | 8.0 | 9.7 | 0.00 | 0.00 | 0.00 | 79 | 1017.8 |
| 20260507125536 | 29 | 106 | 4.8 | 9.7 | 0.00 | 0.00 | 0.00 | 81 | 1017.8 |
| 20260507125033 | 29 | 79 | 6.4 | 9.7 | 0.00 | 0.00 | 0.00 | 80 | 1017.8 |
| 20260507124529 | 29 | 123 | 3.2 | 4.8 | 0.00 | 0.00 | 0.00 | 80 | 1017.8 |
| 20260507124027 | 29 | 185 | 3.2 | 4.8 | 0.00 | 0.00 | 0.00 | 79 | 1017.9 |
| 20260507123525 | 28 | 145 | 8.0 | 11.3 | 0.00 | 0.00 | 0.00 | 81 | 1017.9 |
| 20260507123022 | 28 | 88 | 3.2 | 4.8 | 0.00 | 0.00 | 0.00 | 81 | 1017.9 |
| 20260507122517 | 28 | 86 | 6.4 | 8.0 | 0.00 | 0.00 | 0.00 | 82 | 1017.9 |
| 20260507122013 | 28 | 86 | 6.4 | 9.7 | 0.00 | 0.00 | 0.00 | 83 | 1017.6 |
| 20260507121509 | 28 | 112 | 4.8 | 8.0 | 0.00 | 0.00 | 0.00 | 84 | 1017.5 |
| 20260507121004 | 28 | 103 | 4.8 | 8.0 | 0.00 | 0.00 | 0.00 | 85 | 1017.7 |
| 20260507120501 | 28 | 64 | 4.8 | 4.8 | 0.00 | 0.00 | 0.00 | 85 | 1017.4 |
| 20260507115958 | 27 | 70 | 9.7 | 11.3 | 0.00 | 0.00 | 0.00 | 86 | 1017.5 |
| 20260507115454 | 27 | 92 | 8.0 | 9.7 | 0.00 | 0.00 | 0.00 | 86 | 1017.4 |
| 20260507114950 | 27 | 153 | 8.0 | 11.3 | 0.00 | 0.00 | 0.00 | 86 | 1017.4 |
| 20260507114446 | 27 | 81 | 4.8 | 4.8 | 0.00 | 0.00 | 0.00 | 86 | 1017.2 |
| 20260507113944 | 27 | 143 | 3.2 | 4.8 | 0.00 | 0.00 | 0.00 | 86 | 1017.3 |
| 20260507113440 | 27 | 96 | 3.2 | 3.2 | 0.00 | 0.00 | 0.00 | 86 | 1017.3 |
| 20260507112938 | 27 | 118 | 3.2 | 3.2 | 0.00 | 0.00 | 0.00 | 86 | 1017.2 |
| 20260507112435 | 27 | 210 | 0.0 | 0.0 | 0.00 | 0.00 | 0.00 | 87 | 1017.1 |
| 20260507111932 | 27 | 111 | 1.6 | 1.6 | 0.00 | 0.00 | 0.00 | 86 | 1017.0 |
| 20260507111430 | 27 | 88 | 1.6 | 1.6 | 0.00 | 0.00 | 0.00 | 86 | 1017.1 |
| 20260507110926 | 27 | 198 | 0.0 | 1.6 | 0.00 | 0.00 | 0.00 | 87 | 1017.1 |
| 20260507110422 | 27 | 151 | 1.6 | 1.6 | 0.00 | 0.00 | 0.00 | 88 | 1017.0 |
| 20260507105919 | 27 | 98 | 0.0 | 1.6 | 0.00 | 0.00 | 0.00 | 87 | 1017.3 |
| 20260507105416 | 27 | 75 | 0.0 | 0.0 | 0.00 | 0.00 | 0.00 | 87 | 1017.3 |
| 20260507104912 | 26 | 98 | 0.0 | 0.0 | 0.00 | 0.00 | 0.00 | 89 | 1017.2 |
| 20260507104409 | 26 | 74 | 0.0 | 0.0 | 0.00 | 0.00 | 0.00 | 90 | 1017.0 |
| 20260507103905 | 26 | 67 | 1.6 | 1.6 | 0.00 | 0.00 | 0.00 | 90 | 1017.1 |
| 20260507103402 | 26 | 71 | 1.6 | 1.6 | 0.00 | 0.00 | 0.00 | 91 | 1017.0 |
| 20260507102858 | 25 | 124 | 1.6 | 1.6 | 0.00 | 0.00 | 0.00 | 92 | 1016.8 |
| 20260507102354 | 25 | 80 | 0.0 | 0.0 | 0.00 | 0.00 | 0.00 | 93 | 1017.0 |
| 20260507101851 | 25 | 121 | 1.6 | 1.6 | 0.00 | 0.00 | 0.00 | 93 | 1017.0 |
| 20260507101351 | 25 | 132 | 1.6 | 3.2 | 0.00 | 0.00 | 0.00 | 94 | 1016.9 |
| 20260507100848 | 25 | 174 | 1.6 | 1.6 | 0.00 | 0.00 | 0.00 | 94 | 1016.6 |
| 20260507100346 | 25 | 116 | 1.6 | 1.6 | 0.00 | 0.00 | 0.00 | 95 | 1016.8 |
| 20260507095844 | 25 | 116 | 3.2 | 3.2 | 0.00 | 0.00 | 0.00 | 95 | 1016.4 |
| 20260507095340 | 25 | 141 | 0.0 | 1.6 | 0.00 | 0.00 | 0.00 | 95 | 1016.6 |
| 20260507094838 | 25 | 190 | 1.6 | 1.6 | 0.00 | 0.00 | 0.00 | 95 | 1016.6 |
| 20260507094334 | 25 | 159 | 3.2 | 4.8 | 0.00 | 0.00 | 0.00 | 95 | 1016.6 |
| 20260507093831 | 25 | 178 | 3.2 | 4.8 | 0.00 | 0.00 | 0.00 | 94 | 1016.6 |
| 20260507093329 | 25 | 160 | 4.8 | 4.8 | 0.00 | 0.00 | 0.00 | 94 | 1016.6 |
| 20260507092827 | 25 | 170 | 3.2 | 3.2 | 0.00 | 0.00 | 0.00 | 94 | 1016.6 |
| 20260507092323 | 25 | 162 | 3.2 | 3.2 | 0.00 | 0.00 | 0.00 | 94 | 1016.6 |
| 20260507091820 | 25 | 185 | 0.0 | 1.6 | 0.00 | 0.00 | 0.00 | 94 | 1016.4 |
| 20260507091316 | 25 | 132 | 0.0 | 1.6 | 0.00 | 0.00 | 0.00 | 94 | 1016.7 |
| 20260507090811 | 25 | 136 | 1.6 | 3.2 | 0.00 | 0.00 | 0.00 | 93 | 1016.7 |
| 20260507090308 | 25 | 63 | 0.0 | 1.6 | 0.00 | 0.00 | 0.00 | 93 | 1016.9 |
| 20260507085805 | 25 | 130 | 0.0 | 1.6 | 0.00 | 0.00 | 0.00 | 93 | 1016.9 |
| 20260507085306 | 25 | 100 | 3.2 | 3.2 | 0.00 | 0.00 | 0.00 | 92 | 1016.8 |
| 20260507084800 | 25 | 49 | 1.6 | 1.6 | 0.00 | 0.00 | 0.00 | 92 | 1016.9 |
| 20260507084255 | 25 | 66 | 0.0 | 1.6 | 0.00 | 0.00 | 0.00 | 92 | 1016.8 |
| 20260507083753 | 25 | 103 | 1.6 | 1.6 | 0.00 | 0.00 | 0.00 | 93 | 1016.8 |
| 20260507083250 | 25 | 204 | 0.0 | 1.6 | 0.00 | 0.00 | 0.00 | 93 | 1016.8 |
| 20260507082746 | 25 | 220 | 1.6 | 3.2 | 0.00 | 0.00 | 0.00 | 93 | 1016.8 |
| 20260507082242 | 25 | 225 | 1.6 | 3.2 | 0.00 | 0.00 | 0.00 | 93 | 1016.6 |
| 20260507081739 | 25 | 221 | 1.6 | 1.6 | 0.00 | 0.00 | 0.00 | 93 | 1016.5 |
| 20260507081235 | 25 | 192 | 1.6 | 1.6 | 0.00 | 0.00 | 0.00 | 93 | 1016.6 |
| 20260507080731 | 25 | 208 | 0.0 | 0.0 | 0.00 | 0.00 | 0.00 | 93 | 1016.6 |
| 20260507080228 | 25 | 199 | 0.0 | 1.6 | 0.00 | 0.00 | 0.00 | 94 | 1016.6 |
| 20260507075723 | 25 | 188 | 0.0 | 0.0 | 0.00 | 0.00 | 0.00 | 94 | 1016.7 |
| 20260507075220 | 25 | 97 | 0.0 | 1.6 | 0.00 | 0.00 | 0.00 | 94 | 1016.4 |
| 20260507074716 | 25 | 179 | 1.6 | 1.6 | 0.00 | 0.00 | 0.00 | 94 | 1016.6 |
| 20260507074215 | 25 | 109 | 0.0 | 0.0 | 0.00 | 0.00 | 0.00 | 94 | 1016.8 |
| 20260507073711 | 25 | 176 | 0.0 | 0.0 | 0.00 | 0.00 | 0.00 | 94 | 1016.6 |
| 20260507073207 | 25 | 181 | 0.0 | 1.6 | 0.00 | 0.00 | 0.00 | 94 | 1016.7 |
| 20260507072705 | 25 | 174 | 1.6 | 1.6 | 0.00 | 0.00 | 0.00 | 93 | 1016.8 |
| 20260507072202 | 25 | 169 | 0.0 | 1.6 | 0.00 | 0.00 | 0.00 | 93 | 1016.8 |
| 20260507071700 | 25 | 188 | 1.6 | 1.6 | 0.00 | 0.00 | 0.00 | 93 | 1016.9 |
| 20260507071155 | 25 | 176 | 1.6 | 1.6 | 0.00 | 0.00 | 0.00 | 93 | 1017.0 |
| 20260507070653 | 25 | 155 | 0.0 | 0.0 | 0.00 | 0.00 | 0.00 | 93 | 1016.9 |
| 20260507070149 | 25 | 181 | 1.6 | 1.6 | 0.00 | 0.00 | 0.00 | 93 | 1016.7 |
| 20260507065646 | 25 | 188 | 1.6 | 3.2 | 0.00 | 0.00 | 0.00 | 93 | 1016.8 |
| 20260507065143 | 25 | 179 | 0.0 | 0.0 | 0.00 | 0.00 | 0.00 | 93 | 1017.0 |
| 20260507064640 | 25 | 80 | 0.0 | 1.6 | 0.00 | 0.00 | 0.00 | 93 | 1016.9 |
| 20260507064139 | 25 | 186 | 0.0 | 0.0 | 0.00 | 0.00 | 0.00 | 93 | 1017.1 |
| 20260507063636 | 25 | 72 | 0.0 | 0.0 | 0.00 | 0.00 | 0.00 | 92 | 1017.2 |
| 20260507063133 | 25 | 150 | 1.6 | 3.2 | 0.00 | 0.00 | 0.00 | 92 | 1017.3 |
| 20260507062630 | 25 | 107 | 1.6 | 3.2 | 0.00 | 0.00 | 0.00 | 92 | 1017.2 |
| 20260507062128 | 25 | 118 | 3.2 | 3.2 | 0.00 | 0.00 | 0.00 | 92 | 1017.3 |
| 20260507061625 | 25 | 165 | 1.6 | 3.2 | 0.00 | 0.00 | 0.00 | 91 | 1017.1 |
| 20260507061123 | 26 | 100 | 1.6 | 3.2 | 0.00 | 0.00 | 0.00 | 91 | 1017.2 |
| 20260507060621 | 26 | 86 | 1.6 | 1.6 | 0.00 | 0.00 | 0.00 | 91 | 1017.3 |
| 20260507060117 | 26 | 76 | 0.0 | 1.6 | 0.00 | 0.00 | 0.00 | 91 | 1017.3 |
| 20260507055612 | 26 | 108 | 1.6 | 3.2 | 0.00 | 0.00 | 0.00 | 91 | 1017.6 |
| 20260507055109 | 26 | 93 | 0.0 | 1.6 | 0.00 | 0.00 | 0.00 | 91 | 1017.5 |
| 20260507054604 | 26 | 109 | 1.6 | 1.6 | 0.00 | 0.00 | 0.00 | 91 | 1017.6 |
| 20260507054102 | 26 | 220 | 1.6 | 1.6 | 0.00 | 0.00 | 0.00 | 91 | 1017.6 |
| 20260507053600 | 26 | 232 | 3.2 | 3.2 | 0.00 | 0.00 | 0.00 | 91 | 1017.6 |
| 20260507053058 | 25 | 228 | 1.6 | 3.2 | 0.00 | 0.00 | 0.00 | 92 | 1017.7 |
| 20260507052556 | 25 | 147 | 3.2 | 3.2 | 0.00 | 0.00 | 0.00 | 92 | 1017.7 |
| 20260507052052 | 25 | 176 | 4.8 | 4.8 | 0.00 | 0.00 | 0.00 | 92 | 1017.8 |
| 20260507051549 | 25 | 200 | 1.6 | 3.2 | 0.00 | 0.00 | 0.00 | 92 | 1018.0 |
| 20260507051046 | 25 | 183 | 3.2 | 3.2 | 0.00 | 0.00 | 0.00 | 92 | 1018.1 |
| 20260507050543 | 25 | 165 | 3.2 | 3.2 | 0.00 | 0.00 | 0.00 | 91 | 1018.2 |
| 20260507050039 | 25 | 163 | 4.8 | 4.8 | 0.00 | 0.00 | 0.00 | 91 | 1018.0 |
| 20260507045536 | 26 | 205 | 1.6 | 1.6 | 0.00 | 0.00 | 0.00 | 91 | 1018.2 |
| 20260507045033 | 26 | 219 | 1.6 | 1.6 | 0.00 | 0.00 | 0.00 | 91 | 1018.5 |
| 20260507044530 | 26 | 199 | 3.2 | 3.2 | 0.00 | 0.00 | 0.00 | 91 | 1018.6 |
| 20260507044027 | 26 | 170 | 1.6 | 1.6 | 0.00 | 0.00 | 0.00 | 91 | 1018.6 |
| 20260507043523 | 26 | 179 | 3.2 | 3.2 | 0.00 | 0.00 | 0.00 | 91 | 1018.6 |
| 20260507043021 | 26 | 172 | 3.2 | 4.8 | 0.00 | 0.00 | 0.00 | 90 | 1018.5 |
| 20260507042516 | 26 | 156 | 4.8 | 4.8 | 0.00 | 0.00 | 0.00 | 90 | 1018.7 |
| 20260507042012 | 26 | 187 | 3.2 | 3.2 | 0.00 | 0.00 | 0.00 | 90 | 1018.9 |
| 20260507041509 | 26 | 185 | 1.6 | 1.6 | 0.00 | 0.00 | 0.00 | 90 | 1018.8 |
| 20260507041006 | 26 | 152 | 1.6 | 1.6 | 0.00 | 0.00 | 0.00 | 90 | 1018.8 |
| 20260507040502 | 26 | 159 | 1.6 | 3.2 | 0.00 | 0.00 | 0.00 | 90 | 1018.9 |
| 20260507035957 | 26 | 199 | 1.6 | 1.6 | 0.00 | 0.00 | 0.00 | 90 | 1018.9 |
| 20260507035454 | 26 | 189 | 0.0 | 1.6 | 0.00 | 0.00 | 0.00 | 90 | 1018.9 |
| 20260507034951 | 26 | 210 | 1.6 | 1.6 | 0.00 | 0.00 | 0.00 | 90 | 1019.1 |
| 20260507034448 | 26 | 196 | 1.6 | 3.2 | 0.00 | 0.00 | 0.00 | 90 | 1018.8 |
| 20260507033946 | 26 | 181 | 3.2 | 3.2 | 0.00 | 0.00 | 0.00 | 90 | 1018.9 |
| 20260507033443 | 26 | 128 | 6.4 | 8.0 | 0.00 | 0.00 | 0.00 | 90 | 1019.0 |
| 20260507032940 | 26 | 109 | 1.6 | 1.6 | 0.00 | 0.00 | 0.00 | 89 | 1019.0 |
| 20260507032437 | 26 | 93 | 0.0 | 1.6 | 0.00 | 0.00 | 0.00 | 89 | 1018.9 |
| 20260507031933 | 26 | 110 | 4.8 | 4.8 | 0.00 | 0.00 | 0.00 | 89 | 1019.1 |
| 20260507031430 | 26 | 123 | 3.2 | 3.2 | 0.00 | 0.00 | 0.00 | 89 | 1019.2 |
| 20260507030927 | 26 | 119 | 1.6 | 3.2 | 0.00 | 0.00 | 0.00 | 88 | 1019.1 |
| 20260507030424 | 26 | 88 | 1.6 | 1.6 | 0.00 | 0.00 | 0.00 | 88 | 1019.0 |
| 20260507025921 | 26 | 125 | 3.2 | 3.2 | 0.00 | 0.00 | 0.00 | 88 | 1019.0 |
| 20260507025418 | 26 | 124 | 1.6 | 3.2 | 0.00 | 0.00 | 0.00 | 88 | 1019.3 |
| 20260507024916 | 26 | 144 | 4.8 | 4.8 | 0.00 | 0.00 | 0.00 | 88 | 1019.2 |
| 20260507024413 | 26 | 169 | 3.2 | 4.8 | 0.00 | 0.00 | 0.00 | 87 | 1019.1 |